Accueil
METAR-TAF:

METAR-TAF

Aéroports :

Laupheim, Allemagne

latitude: 48-13N, longitude: 009-55E, altitude: 538 m

Observation

Le bulletin a été fait il y a 1 heure et 19 minutes, à 07:20 UTC
Vent 3 kt de nord-est
Température 18°C
Humidité 56%
Pression 1017 hPa
Visibilité 10 km ou plus
Quelques nuages à une hauteur de 6000 ft
Nuages fragmentés à une hauteur de 25000 ft

METAR: ETHL 140720Z 04003KT 9999 FEW060 BKN250 18/09 Q1017 BLU+BLU+

Heure: 10:39 (08:39 UTC)

Prévision

Le bulletin a été fait il y a 1 heure et 24 minutes, à 07:15 UTC
Prévision valable du 14 à 08 UTC au 14 à 17 UTC
Vent 3 kt de direction variable
Visibilité 10 km ou plus
Quelques nuages à une hauteur de 6000 ft
Nuages fragmentés à une hauteur de 25000 ft

TAF: ETHL 140715Z 1408/1417 VRB03KT 9999 NSW FEW060 BKN250

Observations et prévisions météorologiques de plus de 4000 aéroports (messages METAR et TAF).

Les stations disponibles sont représentées par des disques jaunes et rouges sur la carte.

Passer la souris dessus pour voir le nom de la station.

Cliquer dessus pour voir les observations et prévisions météorologiques.

Pour changer de carte: cliquez sur les boutons verts avec une croix noire pour zoomer, sur le bouton vert avec un tiret pour effectuer un zoom arrière, ou sur les flèches vertes pour les cartes adjacentes.


METAR-TAF: